sensor_id;sensor_type;location;lat;lon;timestamp;P1;durP1;ratioP1;P2;durP2;ratioP2
48375;SDS011;34178;50.904;11.560;2023-12-04T00:00:15;34.80;;;15.05;;
48375;SDS011;34178;50.904;11.560;2023-12-04T00:02:41;35.10;;;15.07;;
48375;SDS011;34178;50.904;11.560;2023-12-04T00:05:07;35.95;;;15.40;;
48375;SDS011;34178;50.904;11.560;2023-12-04T00:07:33;35.95;;;14.13;;
48375;SDS011;34178;50.904;11.560;2023-12-04T00:09:58;38.67;;;14.15;;
48375;SDS011;34178;50.904;11.560;2023-12-04T00:12:24;33.28;;;14.70;;
48375;SDS011;34178;50.904;11.560;2023-12-04T00:14:50;35.97;;;15.57;;
48375;SDS011;34178;50.904;11.560;2023-12-04T00:17:16;34.10;;;14.80;;
48375;SDS011;34178;50.904;11.560;2023-12-04T00:19:42;37.30;;;15.40;;
48375;SDS011;34178;50.904;11.560;2023-12-04T00:22:07;36.15;;;14.90;;
48375;SDS011;34178;50.904;11.560;2023-12-04T00:24:33;37.00;;;15.90;;
48375;SDS011;34178;50.904;11.560;2023-12-04T00:26:59;38.20;;;16.10;;
48375;SDS011;34178;50.904;11.560;2023-12-04T00:29:24;39.25;;;16.70;;
48375;SDS011;34178;50.904;11.560;2023-12-04T00:31:50;37.30;;;15.90;;
48375;SDS011;34178;50.904;11.560;2023-12-04T00:34:15;40.78;;;15.98;;
48375;SDS011;34178;50.904;11.560;2023-12-04T00:36:41;34.53;;;15.88;;
48375;SDS011;34178;50.904;11.560;2023-12-04T00:39:07;42.13;;;16.90;;
48375;SDS011;34178;50.904;11.560;2023-12-04T00:41:33;38.92;;;16.23;;
48375;SDS011;34178;50.904;11.560;2023-12-04T00:43:59;39.70;;;16.13;;
48375;SDS011;34178;50.904;11.560;2023-12-04T00:46:24;39.17;;;17.40;;
48375;SDS011;34178;50.904;11.560;2023-12-04T00:48:50;37.65;;;16.52;;
48375;SDS011;34178;50.904;11.560;2023-12-04T00:51:16;39.78;;;16.10;;
48375;SDS011;34178;50.904;11.560;2023-12-04T00:53:42;37.75;;;15.63;;
48375;SDS011;34178;50.904;11.560;2023-12-04T00:56:08;40.10;;;16.70;;
48375;SDS011;34178;50.904;11.560;2023-12-04T00:58:34;39.63;;;16.08;;
48375;SDS011;34178;50.904;11.560;2023-12-04T01:01:00;43.30;;;17.23;;
48375;SDS011;34178;50.904;11.560;2023-12-04T01:03:25;40.88;;;16.88;;
48375;SDS011;34178;50.904;11.560;2023-12-04T01:05:51;37.75;;;16.58;;
48375;SDS011;34178;50.904;11.560;2023-12-04T01:08:17;38.75;;;16.92;;
48375;SDS011;34178;50.904;11.560;2023-12-04T01:10:43;40.13;;;16.92;;
48375;SDS011;34178;50.904;11.560;2023-12-04T01:13:09;42.30;;;16.98;;
48375;SDS011;34178;50.904;11.560;2023-12-04T01:15:35;35.90;;;16.10;;
48375;SDS011;34178;50.904;11.560;2023-12-04T01:18:01;41.85;;;16.60;;
48375;SDS011;34178;50.904;11.560;2023-12-04T01:20:27;40.10;;;16.98;;
48375;SDS011;34178;50.904;11.560;2023-12-04T01:22:53;40.47;;;16.33;;
48375;SDS011;34178;50.904;11.560;2023-12-04T01:25:19;40.28;;;16.65;;
48375;SDS011;34178;50.904;11.560;2023-12-04T01:27:44;38.10;;;16.10;;
48375;SDS011;34178;50.904;11.560;2023-12-04T01:30:10;36.83;;;15.90;;
48375;SDS011;34178;50.904;11.560;2023-12-04T01:32:37;42.20;;;17.05;;
48375;SDS011;34178;50.904;11.560;2023-12-04T01:35:03;38.28;;;16.23;;
48375;SDS011;34178;50.904;11.560;2023-12-04T01:37:29;37.60;;;16.33;;
48375;SDS011;34178;50.904;11.560;2023-12-04T01:39:55;42.25;;;17.42;;
48375;SDS011;34178;50.904;11.560;2023-12-04T01:42:21;37.42;;;15.25;;
48375;SDS011;34178;50.904;11.560;2023-12-04T01:44:46;38.38;;;15.38;;
48375;SDS011;34178;50.904;11.560;2023-12-04T01:47:12;37.80;;;16.55;;
48375;SDS011;34178;50.904;11.560;2023-12-04T01:49:38;37.28;;;16.30;;
48375;SDS011;34178;50.904;11.560;2023-12-04T01:52:04;38.65;;;16.65;;
48375;SDS011;34178;50.904;11.560;2023-12-04T01:54:30;35.15;;;14.95;;
48375;SDS011;34178;50.904;11.560;2023-12-04T01:56:57;35.65;;;14.80;;
48375;SDS011;34178;50.904;11.560;2023-12-04T01:59:23;37.63;;;15.43;;
48375;SDS011;34178;50.904;11.560;2023-12-04T02:01:50;35.60;;;15.63;;
48375;SDS011;34178;50.904;11.560;2023-12-04T02:04:17;35.38;;;14.85;;
48375;SDS011;34178;50.904;11.560;2023-12-04T02:06:43;38.80;;;16.55;;
48375;SDS011;34178;50.904;11.560;2023-12-04T02:09:08;39.53;;;16.92;;
48375;SDS011;34178;50.904;11.560;2023-12-04T02:11:37;37.50;;;15.25;;
48375;SDS011;34178;50.904;11.560;2023-12-04T02:14:04;38.60;;;16.08;;
48375;SDS011;34178;50.904;11.560;2023-12-04T02:16:30;40.33;;;16.45;;
48375;SDS011;34178;50.904;11.560;2023-12-04T02:18:58;38.40;;;16.50;;
48375;SDS011;34178;50.904;11.560;2023-12-04T02:21:24;40.40;;;15.82;;
48375;SDS011;34178;50.904;11.560;2023-12-04T02:23:51;35.45;;;16.08;;
48375;SDS011;34178;50.904;11.560;2023-12-04T02:26:18;38.97;;;15.60;;
48375;SDS011;34178;50.904;11.560;2023-12-04T02:28:54;41.70;;;14.85;;
48375;SDS011;34178;50.904;11.560;2023-12-04T02:31:24;37.03;;;15.98;;
48375;SDS011;34178;50.904;11.560;2023-12-04T02:33:55;34.78;;;15.05;;
48375;SDS011;34178;50.904;11.560;2023-12-04T02:36:22;35.13;;;15.82;;
48375;SDS011;34178;50.904;11.560;2023-12-04T02:38:50;36.67;;;15.40;;
48375;SDS011;34178;50.904;11.560;2023-12-04T02:41:17;41.95;;;16.65;;
48375;SDS011;34178;50.904;11.560;2023-12-04T02:43:43;39.47;;;15.20;;
48375;SDS011;34178;50.904;11.560;2023-12-04T02:46:09;37.15;;;15.73;;
48375;SDS011;34178;50.904;11.560;2023-12-04T02:48:35;37.20;;;16.08;;
48375;SDS011;34178;50.904;11.560;2023-12-04T02:51:01;37.33;;;14.52;;
48375;SDS011;34178;50.904;11.560;2023-12-04T02:53:28;35.45;;;15.38;;
48375;SDS011;34178;50.904;11.560;2023-12-04T02:55:53;38.60;;;15.25;;
48375;SDS011;34178;50.904;11.560;2023-12-04T02:58:19;41.30;;;15.88;;
48375;SDS011;34178;50.904;11.560;2023-12-04T03:00:45;35.85;;;15.27;;
48375;SDS011;34178;50.904;11.560;2023-12-04T03:03:10;36.35;;;15.02;;
48375;SDS011;34178;50.904;11.560;2023-12-04T03:05:36;34.20;;;15.20;;
48375;SDS011;34178;50.904;11.560;2023-12-04T03:08:02;36.72;;;16.10;;
48375;SDS011;34178;50.904;11.560;2023-12-04T03:10:28;36.75;;;15.88;;
48375;SDS011;34178;50.904;11.560;2023-12-04T03:12:53;35.45;;;15.95;;
48375;SDS011;34178;50.904;11.560;2023-12-04T03:15:19;40.78;;;16.23;;
48375;SDS011;34178;50.904;11.560;2023-12-04T03:17:45;34.97;;;15.13;;
48375;SDS011;34178;50.904;11.560;2023-12-04T03:20:11;36.10;;;15.75;;
48375;SDS011;34178;50.904;11.560;2023-12-04T03:22:36;37.75;;;15.48;;
48375;SDS011;34178;50.904;11.560;2023-12-04T03:25:02;35.13;;;16.73;;
48375;SDS011;34178;50.904;11.560;2023-12-04T03:27:28;39.33;;;15.98;;
48375;SDS011;34178;50.904;11.560;2023-12-04T03:29:54;39.47;;;15.70;;
48375;SDS011;34178;50.904;11.560;2023-12-04T03:32:20;36.47;;;16.58;;
48375;SDS011;34178;50.904;11.560;2023-12-04T03:34:45;39.03;;;15.93;;
48375;SDS011;34178;50.904;11.560;2023-12-04T03:37:11;33.25;;;15.98;;
48375;SDS011;34178;50.904;11.560;2023-12-04T03:39:37;38.42;;;16.45;;
48375;SDS011;34178;50.904;11.560;2023-12-04T03:42:02;33.90;;;15.38;;
48375;SDS011;34178;50.904;11.560;2023-12-04T03:44:28;28.05;;;13.02;;
48375;SDS011;34178;50.904;11.560;2023-12-04T03:46:54;29.92;;;12.63;;
48375;SDS011;34178;50.904;11.560;2023-12-04T03:49:20;27.40;;;12.25;;
48375;SDS011;34178;50.904;11.560;2023-12-04T03:51:45;23.58;;;11.40;;
48375;SDS011;34178;50.904;11.560;2023-12-04T03:54:11;23.05;;;10.88;;
48375;SDS011;34178;50.904;11.560;2023-12-04T03:56:38;25.30;;;11.65;;
48375;SDS011;34178;50.904;11.560;2023-12-04T03:59:04;25.60;;;12.30;;
48375;SDS011;34178;50.904;11.560;2023-12-04T04:01:30;26.40;;;11.85;;
48375;SDS011;34178;50.904;11.560;2023-12-04T04:03:55;26.30;;;11.18;;
48375;SDS011;34178;50.904;11.560;2023-12-04T04:06:21;27.33;;;11.85;;
48375;SDS011;34178;50.904;11.560;2023-12-04T04:08:47;23.83;;;10.93;;
48375;SDS011;34178;50.904;11.560;2023-12-04T04:11:13;27.88;;;11.93;;
48375;SDS011;34178;50.904;11.560;2023-12-04T04:13:39;24.67;;;10.75;;
48375;SDS011;34178;50.904;11.560;2023-12-04T04:16:04;24.20;;;12.20;;
48375;SDS011;34178;50.904;11.560;2023-12-04T04:18:31;24.50;;;11.10;;
48375;SDS011;34178;50.904;11.560;2023-12-04T04:20:56;24.23;;;11.60;;
48375;SDS011;34178;50.904;11.560;2023-12-04T04:23:22;21.52;;;9.60;;
48375;SDS011;34178;50.904;11.560;2023-12-04T04:25:48;22.45;;;10.90;;
48375;SDS011;34178;50.904;11.560;2023-12-04T04:28:13;22.75;;;10.98;;
48375;SDS011;34178;50.904;11.560;2023-12-04T04:30:39;24.35;;;11.00;;
48375;SDS011;34178;50.904;11.560;2023-12-04T04:33:05;24.33;;;10.52;;
48375;SDS011;34178;50.904;11.560;2023-12-04T04:35:31;24.73;;;10.15;;
48375;SDS011;34178;50.904;11.560;2023-12-04T04:37:57;23.73;;;10.30;;
48375;SDS011;34178;50.904;11.560;2023-12-04T04:40:22;23.70;;;10.55;;
48375;SDS011;34178;50.904;11.560;2023-12-04T04:42:48;24.50;;;11.10;;
48375;SDS011;34178;50.904;11.560;2023-12-04T04:45:14;23.15;;;11.00;;
48375;SDS011;34178;50.904;11.560;2023-12-04T04:47:39;23.75;;;11.05;;
48375;SDS011;34178;50.904;11.560;2023-12-04T04:50:05;24.02;;;10.82;;
48375;SDS011;34178;50.904;11.560;2023-12-04T04:52:31;23.20;;;10.57;;
48375;SDS011;34178;50.904;11.560;2023-12-04T04:54:57;22.85;;;10.68;;
48375;SDS011;34178;50.904;11.560;2023-12-04T04:57:23;22.42;;;10.50;;
48375;SDS011;34178;50.904;11.560;2023-12-04T04:59:48;24.10;;;11.35;;
48375;SDS011;34178;50.904;11.560;2023-12-04T05:02:14;27.73;;;12.20;;
48375;SDS011;34178;50.904;11.560;2023-12-04T05:04:40;30.23;;;13.77;;
48375;SDS011;34178;50.904;11.560;2023-12-04T05:07:05;28.13;;;13.35;;
48375;SDS011;34178;50.904;11.560;2023-12-04T05:09:31;30.23;;;13.75;;
48375;SDS011;34178;50.904;11.560;2023-12-04T05:11:57;32.53;;;15.57;;
48375;SDS011;34178;50.904;11.560;2023-12-04T05:14:22;32.08;;;13.60;;
48375;SDS011;34178;50.904;11.560;2023-12-04T05:16:48;30.70;;;14.52;;
48375;SDS011;34178;50.904;11.560;2023-12-04T05:19:14;28.65;;;14.13;;
48375;SDS011;34178;50.904;11.560;2023-12-04T05:21:39;33.75;;;14.75;;
48375;SDS011;34178;50.904;11.560;2023-12-04T05:24:05;28.05;;;12.52;;
48375;SDS011;34178;50.904;11.560;2023-12-04T05:26:31;27.15;;;12.40;;
48375;SDS011;34178;50.904;11.560;2023-12-04T05:28:56;31.02;;;11.90;;
48375;SDS011;34178;50.904;11.560;2023-12-04T05:31:22;28.83;;;12.02;;
48375;SDS011;34178;50.904;11.560;2023-12-04T05:33:48;29.80;;;13.82;;
48375;SDS011;34178;50.904;11.560;2023-12-04T05:36:13;32.88;;;13.73;;
48375;SDS011;34178;50.904;11.560;2023-12-04T05:38:39;31.63;;;13.68;;
48375;SDS011;34178;50.904;11.560;2023-12-04T05:41:04;31.00;;;14.07;;
48375;SDS011;34178;50.904;11.560;2023-12-04T05:43:30;44.40;;;20.33;;
48375;SDS011;34178;50.904;11.560;2023-12-04T05:45:56;34.35;;;15.25;;
48375;SDS011;34178;50.904;11.560;2023-12-04T05:48:22;31.20;;;14.50;;
48375;SDS011;34178;50.904;11.560;2023-12-04T05:50:47;29.85;;;12.68;;
48375;SDS011;34178;50.904;11.560;2023-12-04T05:53:13;31.10;;;12.52;;
48375;SDS011;34178;50.904;11.560;2023-12-04T05:55:39;34.72;;;13.35;;
48375;SDS011;34178;50.904;11.560;2023-12-04T05:58:04;41.05;;;16.38;;
48375;SDS011;34178;50.904;11.560;2023-12-04T06:00:30;38.42;;;15.93;;
48375;SDS011;34178;50.904;11.560;2023-12-04T06:02:56;36.30;;;16.67;;
48375;SDS011;34178;50.904;11.560;2023-12-04T06:05:21;32.88;;;13.43;;
48375;SDS011;34178;50.904;11.560;2023-12-04T06:07:48;35.75;;;14.40;;
48375;SDS011;34178;50.904;11.560;2023-12-04T06:10:14;30.75;;;13.57;;
48375;SDS011;34178;50.904;11.560;2023-12-04T06:12:39;39.03;;;16.85;;
48375;SDS011;34178;50.904;11.560;2023-12-04T06:15:05;48.17;;;19.58;;
48375;SDS011;34178;50.904;11.560;2023-12-04T06:17:31;34.60;;;14.88;;
48375;SDS011;34178;50.904;11.560;2023-12-04T06:19:57;40.13;;;16.88;;
48375;SDS011;34178;50.904;11.560;2023-12-04T06:22:23;33.33;;;14.10;;
48375;SDS011;34178;50.904;11.560;2023-12-04T06:24:49;32.60;;;13.70;;
48375;SDS011;34178;50.904;11.560;2023-12-04T06:27:15;33.78;;;15.00;;
48375;SDS011;34178;50.904;11.560;2023-12-04T06:29:44;30.60;;;13.10;;
48375;SDS011;34178;50.904;11.560;2023-12-04T06:32:11;25.30;;;10.98;;
48375;SDS011;34178;50.904;11.560;2023-12-04T06:34:37;23.08;;;10.63;;
48375;SDS011;34178;50.904;11.560;2023-12-04T06:37:03;179.32;;;59.15;;
48375;SDS011;34178;50.904;11.560;2023-12-04T06:39:34;58.05;;;24.77;;
48375;SDS011;34178;50.904;11.560;2023-12-04T06:42:01;29.42;;;13.82;;
48375;SDS011;34178;50.904;11.560;2023-12-04T06:44:27;28.90;;;13.68;;
48375;SDS011;34178;50.904;11.560;2023-12-04T06:46:53;31.00;;;14.00;;
48375;SDS011;34178;50.904;11.560;2023-12-04T06:49:20;28.58;;;13.57;;
48375;SDS011;34178;50.904;11.560;2023-12-04T06:51:46;30.35;;;13.68;;
48375;SDS011;34178;50.904;11.560;2023-12-04T06:54:12;25.67;;;11.70;;
48375;SDS011;34178;50.904;11.560;2023-12-04T06:56:38;27.10;;;13.38;;
48375;SDS011;34178;50.904;11.560;2023-12-04T06:59:04;30.42;;;13.77;;
48375;SDS011;34178;50.904;11.560;2023-12-04T07:01:30;29.17;;;13.73;;
48375;SDS011;34178;50.904;11.560;2023-12-04T07:03:55;26.38;;;13.02;;
48375;SDS011;34178;50.904;11.560;2023-12-04T07:06:22;31.23;;;13.85;;
48375;SDS011;34178;50.904;11.560;2023-12-04T07:08:47;33.90;;;13.40;;
48375;SDS011;34178;50.904;11.560;2023-12-04T07:11:13;27.00;;;12.77;;
48375;SDS011;34178;50.904;11.560;2023-12-04T07:13:40;31.30;;;13.20;;
48375;SDS011;34178;50.904;11.560;2023-12-04T07:16:07;26.50;;;13.20;;
48375;SDS011;34178;50.904;11.560;2023-12-04T07:18:33;26.55;;;12.55;;
48375;SDS011;34178;50.904;11.560;2023-12-04T07:21:00;25.50;;;12.82;;
48375;SDS011;34178;50.904;11.560;2023-12-04T07:23:25;25.17;;;11.70;;
48375;SDS011;34178;50.904;11.560;2023-12-04T07:25:51;27.00;;;13.45;;
48375;SDS011;34178;50.904;11.560;2023-12-04T07:28:17;27.63;;;12.75;;
48375;SDS011;34178;50.904;11.560;2023-12-04T07:30:43;25.10;;;12.68;;
48375;SDS011;34178;50.904;11.560;2023-12-04T07:33:09;30.45;;;13.85;;
48375;SDS011;34178;50.904;11.560;2023-12-04T07:35:34;24.10;;;12.40;;
48375;SDS011;34178;50.904;11.560;2023-12-04T07:38:00;28.13;;;14.43;;
48375;SDS011;34178;50.904;11.560;2023-12-04T07:40:26;30.60;;;15.32;;
48375;SDS011;34178;50.904;11.560;2023-12-04T07:42:51;31.25;;;16.88;;
48375;SDS011;34178;50.904;11.560;2023-12-04T07:45:17;30.77;;;15.40;;
48375;SDS011;34178;50.904;11.560;2023-12-04T07:47:43;34.03;;;16.92;;
48375;SDS011;34178;50.904;11.560;2023-12-04T07:50:08;38.13;;;19.95;;
48375;SDS011;34178;50.904;11.560;2023-12-04T07:52:34;53.03;;;26.83;;
48375;SDS011;34178;50.904;11.560;2023-12-04T07:55:00;38.60;;;18.58;;
48375;SDS011;34178;50.904;11.560;2023-12-04T07:57:26;47.05;;;22.17;;
48375;SDS011;34178;50.904;11.560;2023-12-04T07:59:52;38.70;;;19.40;;
48375;SDS011;34178;50.904;11.560;2023-12-04T08:02:18;35.05;;;17.13;;
48375;SDS011;34178;50.904;11.560;2023-12-04T08:04:44;58.65;;;30.13;;
48375;SDS011;34178;50.904;11.560;2023-12-04T08:07:09;49.85;;;28.33;;
48375;SDS011;34178;50.904;11.560;2023-12-04T08:09:36;40.15;;;22.83;;
48375;SDS011;34178;50.904;11.560;2023-12-04T08:12:01;46.00;;;26.23;;
48375;SDS011;34178;50.904;11.560;2023-12-04T08:14:27;45.33;;;24.73;;
48375;SDS011;34178;50.904;11.560;2023-12-04T08:16:53;34.13;;;19.45;;
48375;SDS011;34178;50.904;11.560;2023-12-04T08:19:18;29.55;;;15.20;;
48375;SDS011;34178;50.904;11.560;2023-12-04T08:21:44;25.52;;;13.95;;
48375;SDS011;34178;50.904;11.560;2023-12-04T08:24:10;28.15;;;16.90;;
48375;SDS011;34178;50.904;11.560;2023-12-04T08:26:35;24.50;;;13.40;;
48375;SDS011;34178;50.904;11.560;2023-12-04T08:29:01;25.55;;;12.80;;
48375;SDS011;34178;50.904;11.560;2023-12-04T08:31:27;29.08;;;14.65;;
48375;SDS011;34178;50.904;11.560;2023-12-04T08:33:53;26.65;;;13.45;;
48375;SDS011;34178;50.904;11.560;2023-12-04T08:36:19;33.78;;;15.23;;
48375;SDS011;34178;50.904;11.560;2023-12-04T08:38:45;28.38;;;14.15;;
48375;SDS011;34178;50.904;11.560;2023-12-04T08:41:11;40.13;;;19.42;;
48375;SDS011;34178;50.904;11.560;2023-12-04T08:43:37;45.80;;;21.80;;
48375;SDS011;34178;50.904;11.560;2023-12-04T08:46:02;30.15;;;16.15;;
48375;SDS011;34178;50.904;11.560;2023-12-04T08:48:28;28.58;;;15.82;;
48375;SDS011;34178;50.904;11.560;2023-12-04T08:50:54;36.63;;;18.27;;
48375;SDS011;34178;50.904;11.560;2023-12-04T08:53:21;28.40;;;19.00;;
48375;SDS011;34178;50.904;11.560;2023-12-04T08:55:47;17.77;;;9.23;;
48375;SDS011;34178;50.904;11.560;2023-12-04T08:58:12;17.27;;;9.20;;
48375;SDS011;34178;50.904;11.560;2023-12-04T09:00:38;15.98;;;8.32;;
48375;SDS011;34178;50.904;11.560;2023-12-04T09:03:07;17.57;;;9.07;;
48375;SDS011;34178;50.904;11.560;2023-12-04T09:05:35;18.50;;;8.20;;
48375;SDS011;34178;50.904;11.560;2023-12-04T09:08:01;17.70;;;9.23;;
48375;SDS011;34178;50.904;11.560;2023-12-04T09:10:27;16.95;;;8.25;;
48375;SDS011;34178;50.904;11.560;2023-12-04T09:12:53;17.42;;;8.57;;
48375;SDS011;34178;50.904;11.560;2023-12-04T09:15:19;16.20;;;8.27;;
48375;SDS011;34178;50.904;11.560;2023-12-04T09:17:45;20.25;;;9.07;;
48375;SDS011;34178;50.904;11.560;2023-12-04T09:20:11;15.45;;;8.32;;
48375;SDS011;34178;50.904;11.560;2023-12-04T09:22:36;17.23;;;8.63;;
48375;SDS011;34178;50.904;11.560;2023-12-04T09:25:07;17.85;;;8.50;;
48375;SDS011;34178;50.904;11.560;2023-12-04T09:27:34;16.17;;;8.07;;
48375;SDS011;34178;50.904;11.560;2023-12-04T09:30:00;16.58;;;8.70;;
48375;SDS011;34178;50.904;11.560;2023-12-04T09:32:25;16.02;;;8.30;;
48375;SDS011;34178;50.904;11.560;2023-12-04T09:34:51;15.88;;;8.32;;
48375;SDS011;34178;50.904;11.560;2023-12-04T09:37:17;17.45;;;8.27;;
48375;SDS011;34178;50.904;11.560;2023-12-04T09:39:42;16.40;;;8.13;;
48375;SDS011;34178;50.904;11.560;2023-12-04T09:42:08;17.10;;;8.23;;
48375;SDS011;34178;50.904;11.560;2023-12-04T09:44:36;16.05;;;7.95;;
48375;SDS011;34178;50.904;11.560;2023-12-04T09:47:02;15.65;;;7.78;;
48375;SDS011;34178;50.904;11.560;2023-12-04T09:49:29;12.45;;;6.50;;
48375;SDS011;34178;50.904;11.560;2023-12-04T09:52:00;13.45;;;6.88;;
48375;SDS011;34178;50.904;11.560;2023-12-04T09:54:27;13.70;;;7.13;;
48375;SDS011;34178;50.904;11.560;2023-12-04T09:56:54;15.85;;;8.07;;
48375;SDS011;34178;50.904;11.560;2023-12-04T09:59:20;13.43;;;6.85;;
48375;SDS011;34178;50.904;11.560;2023-12-04T10:01:49;13.35;;;7.32;;
48375;SDS011;34178;50.904;11.560;2023-12-04T10:04:16;13.70;;;6.65;;
48375;SDS011;34178;50.904;11.560;2023-12-04T10:06:41;13.57;;;7.13;;
48375;SDS011;34178;50.904;11.560;2023-12-04T10:09:08;13.77;;;6.97;;
48375;SDS011;34178;50.904;11.560;2023-12-04T10:11:40;13.15;;;6.43;;
48375;SDS011;34178;50.904;11.560;2023-12-04T10:14:13;14.32;;;6.65;;
48375;SDS011;34178;50.904;11.560;2023-12-04T10:16:43;11.18;;;6.70;;
48375;SDS011;34178;50.904;11.560;2023-12-04T10:19:30;12.95;;;6.25;;
48375;SDS011;34178;50.904;11.560;2023-12-04T10:21:55;13.77;;;6.55;;
48375;SDS011;34178;50.904;11.560;2023-12-04T10:24:31;12.02;;;6.18;;
48375;SDS011;34178;50.904;11.560;2023-12-04T10:27:07;12.65;;;6.57;;
48375;SDS011;34178;50.904;11.560;2023-12-04T10:29:48;15.60;;;7.03;;
48375;SDS011;34178;50.904;11.560;2023-12-04T10:32:20;14.00;;;6.82;;
48375;SDS011;34178;50.904;11.560;2023-12-04T10:34:46;12.20;;;6.05;;
48375;SDS011;34178;50.904;11.560;2023-12-04T10:37:12;17.45;;;7.22;;
48375;SDS011;34178;50.904;11.560;2023-12-04T10:39:48;15.77;;;6.68;;
48375;SDS011;34178;50.904;11.560;2023-12-04T10:42:36;15.73;;;7.22;;
48375;SDS011;34178;50.904;11.560;2023-12-04T10:45:01;12.65;;;6.80;;
48375;SDS011;34178;50.904;11.560;2023-12-04T10:47:28;12.75;;;6.43;;
48375;SDS011;34178;50.904;11.560;2023-12-04T10:49:57;13.50;;;6.50;;
48375;SDS011;34178;50.904;11.560;2023-12-04T10:52:23;15.07;;;7.75;;
48375;SDS011;34178;50.904;11.560;2023-12-04T10:54:49;12.65;;;6.28;;
48375;SDS011;34178;50.904;11.560;2023-12-04T10:57:22;15.20;;;7.03;;
48375;SDS011;34178;50.904;11.560;2023-12-04T11:00:01;13.48;;;6.57;;
48375;SDS011;34178;50.904;11.560;2023-12-04T11:02:28;12.95;;;7.05;;
48375;SDS011;34178;50.904;11.560;2023-12-04T11:05:16;11.57;;;5.82;;
48375;SDS011;34178;50.904;11.560;2023-12-04T11:08:19;12.52;;;6.10;;
48375;SDS011;34178;50.904;11.560;2023-12-04T11:13:15;12.88;;;6.63;;
48375;SDS011;34178;50.904;11.560;2023-12-04T11:15:47;13.93;;;6.68;;
48375;SDS011;34178;50.904;11.560;2023-12-04T11:18:15;13.25;;;6.63;;
48375;SDS011;34178;50.904;11.560;2023-12-04T11:21:25;14.55;;;7.05;;
48375;SDS011;34178;50.904;11.560;2023-12-04T11:23:33;13.38;;;6.53;;
48375;SDS011;34178;50.904;11.560;2023-12-04T11:25:59;14.38;;;7.07;;
48375;SDS011;34178;50.904;11.560;2023-12-04T11:28:26;13.93;;;6.97;;
48375;SDS011;34178;50.904;11.560;2023-12-04T11:30:53;14.63;;;7.25;;
48375;SDS011;34178;50.904;11.560;2023-12-04T11:33:19;13.18;;;6.85;;
48375;SDS011;34178;50.904;11.560;2023-12-04T11:35:45;13.93;;;7.07;;
48375;SDS011;34178;50.904;11.560;2023-12-04T11:38:14;14.35;;;6.93;;
48375;SDS011;34178;50.904;11.560;2023-12-04T11:40:41;19.42;;;9.65;;
48375;SDS011;34178;50.904;11.560;2023-12-04T11:43:26;16.77;;;8.20;;
48375;SDS011;34178;50.904;11.560;2023-12-04T11:46:06;13.45;;;7.03;;
48375;SDS011;34178;50.904;11.560;2023-12-04T11:48:39;13.75;;;7.18;;
48375;SDS011;34178;50.904;11.560;2023-12-04T11:51:07;14.13;;;7.00;;
48375;SDS011;34178;50.904;11.560;2023-12-04T11:53:40;12.57;;;6.97;;
48375;SDS011;34178;50.904;11.560;2023-12-04T11:56:12;12.60;;;6.43;;
48375;SDS011;34178;50.904;11.560;2023-12-04T11:58:44;14.23;;;7.28;;
48375;SDS011;34178;50.904;11.560;2023-12-04T12:01:10;14.00;;;6.93;;
48375;SDS011;34178;50.904;11.560;2023-12-04T12:03:36;14.45;;;7.03;;
48375;SDS011;34178;50.904;11.560;2023-12-04T12:06:03;13.20;;;6.40;;
48375;SDS011;34178;50.904;11.560;2023-12-04T12:08:29;11.48;;;5.80;;
48375;SDS011;34178;50.904;11.560;2023-12-04T12:10:55;14.85;;;7.43;;
48375;SDS011;34178;50.904;11.560;2023-12-04T12:13:22;13.45;;;6.53;;
48375;SDS011;34178;50.904;11.560;2023-12-04T12:15:51;10.65;;;5.40;;
48375;SDS011;34178;50.904;11.560;2023-12-04T12:18:17;12.40;;;5.93;;
48375;SDS011;34178;50.904;11.560;2023-12-04T12:20:42;10.77;;;5.25;;
48375;SDS011;34178;50.904;11.560;2023-12-04T12:23:08;13.55;;;6.32;;
48375;SDS011;34178;50.904;11.560;2023-12-04T12:25:37;12.05;;;5.97;;
48375;SDS011;34178;50.904;11.560;2023-12-04T12:28:04;12.77;;;5.20;;
48375;SDS011;34178;50.904;11.560;2023-12-04T12:30:30;11.13;;;5.10;;
48375;SDS011;34178;50.904;11.560;2023-12-04T12:32:56;9.77;;;5.38;;
48375;SDS011;34178;50.904;11.560;2023-12-04T12:35:22;13.45;;;5.75;;
48375;SDS011;34178;50.904;11.560;2023-12-04T12:37:48;10.52;;;5.00;;
48375;SDS011;34178;50.904;11.560;2023-12-04T12:40:18;12.85;;;5.88;;
48375;SDS011;34178;50.904;11.560;2023-12-04T12:42:45;11.30;;;5.22;;
48375;SDS011;34178;50.904;11.560;2023-12-04T12:45:10;10.20;;;4.80;;
48375;SDS011;34178;50.904;11.560;2023-12-04T12:47:37;10.65;;;5.20;;
48375;SDS011;34178;50.904;11.560;2023-12-04T12:50:03;12.48;;;5.20;;
48375;SDS011;34178;50.904;11.560;2023-12-04T12:52:32;11.38;;;5.25;;
48375;SDS011;34178;50.904;11.560;2023-12-04T12:54:58;11.32;;;5.28;;
48375;SDS011;34178;50.904;11.560;2023-12-04T12:57:24;9.75;;;4.78;;
48375;SDS011;34178;50.904;11.560;2023-12-04T12:59:50;9.02;;;4.75;;
48375;SDS011;34178;50.904;11.560;2023-12-04T13:02:16;12.38;;;5.53;;
48375;SDS011;34178;50.904;11.560;2023-12-04T13:04:42;11.18;;;5.07;;
48375;SDS011;34178;50.904;11.560;2023-12-04T13:07:09;8.80;;;4.32;;
48375;SDS011;34178;50.904;11.560;2023-12-04T13:09:35;12.73;;;5.47;;
48375;SDS011;34178;50.904;11.560;2023-12-04T13:12:02;29.00;;;20.17;;
48375;SDS011;34178;50.904;11.560;2023-12-04T13:14:31;12.13;;;6.43;;
48375;SDS011;34178;50.904;11.560;2023-12-04T13:16:57;9.75;;;5.13;;
48375;SDS011;34178;50.904;11.560;2023-12-04T13:19:23;10.35;;;5.07;;
48375;SDS011;34178;50.904;11.560;2023-12-04T13:21:49;9.50;;;4.70;;
48375;SDS011;34178;50.904;11.560;2023-12-04T13:24:15;10.88;;;4.85;;
48375;SDS011;34178;50.904;11.560;2023-12-04T13:26:42;12.27;;;5.32;;
48375;SDS011;34178;50.904;11.560;2023-12-04T13:29:08;12.95;;;5.93;;
48375;SDS011;34178;50.904;11.560;2023-12-04T13:31:34;11.38;;;5.40;;
48375;SDS011;34178;50.904;11.560;2023-12-04T13:34:00;10.55;;;5.05;;
48375;SDS011;34178;50.904;11.560;2023-12-04T13:36:25;10.82;;;5.10;;
48375;SDS011;34178;50.904;11.560;2023-12-04T13:38:52;10.43;;;5.22;;
48375;SDS011;34178;50.904;11.560;2023-12-04T13:41:18;11.88;;;5.63;;
48375;SDS011;34178;50.904;11.560;2023-12-04T13:44:03;8.98;;;3.90;;
48375;SDS011;34178;50.904;11.560;2023-12-04T13:46:29;8.40;;;3.75;;
48375;SDS011;34178;50.904;11.560;2023-12-04T13:48:58;9.13;;;4.70;;
48375;SDS011;34178;50.904;11.560;2023-12-04T13:51:24;8.97;;;4.70;;
48375;SDS011;34178;50.904;11.560;2023-12-04T13:53:50;10.68;;;4.70;;
48375;SDS011;34178;50.904;11.560;2023-12-04T13:56:21;10.48;;;4.97;;
48375;SDS011;34178;50.904;11.560;2023-12-04T13:59:00;10.10;;;4.50;;
48375;SDS011;34178;50.904;11.560;2023-12-04T14:01:28;11.82;;;5.00;;
48375;SDS011;34178;50.904;11.560;2023-12-04T14:03:55;10.10;;;4.32;;
48375;SDS011;34178;50.904;11.560;2023-12-04T14:06:26;10.38;;;4.55;;
48375;SDS011;34178;50.904;11.560;2023-12-04T14:08:53;10.38;;;4.85;;
48375;SDS011;34178;50.904;11.560;2023-12-04T14:11:18;10.07;;;4.90;;
48375;SDS011;34178;50.904;11.560;2023-12-04T14:13:44;14.95;;;5.65;;